Terminal Aerodrome Forecast
Issued by NWS

Home | Current Version | Previous Version | Text Only | Print | Product List | Glossary On
Versions: 1 2 3 4 5 6 7 8 9 10 11 12
000
FTUS45 KMSO 292300
TAFSMN
TAF
KSMN 292332Z 3000/3024 15010KT P6SM VCTS SCT090CB BKN150
     FM300200 VRB03KT P6SM SCT150
     FM302100 35007KT P6SM VCSH BKN120
      AMD LTD TO CLD VIS AND WIND=

USA.gov is the U.S. government's official web portal to all federal, state and local government web resources and services.